createdAt,value
2019-05-11T00:00:52.484Z,19.77
2019-05-11T00:05:58.434Z,22.57
2019-05-11T00:11:03.651Z,16.70
2019-05-11T00:16:08.727Z,17.03
2019-05-11T00:21:13.717Z,18.83
2019-05-11T00:26:18.770Z,16.23
2019-05-11T00:31:23.928Z,15.30
2019-05-11T00:36:28.898Z,13.23
2019-05-11T00:41:33.911Z,15.27
2019-05-11T00:46:38.855Z,15.97
2019-05-11T00:51:43.839Z,16.30
2019-05-11T00:56:48.903Z,14.33
2019-05-11T01:01:53.924Z,14.27
2019-05-11T01:06:59.036Z,13.67
2019-05-11T01:12:04.118Z,15.60
2019-05-11T01:17:10.277Z,13.97
2019-05-11T01:22:15.499Z,16.77
2019-05-11T01:27:20.558Z,14.53
2019-05-11T01:32:25.658Z,11.87
2019-05-11T01:37:30.748Z,16.10
2019-05-11T01:42:35.803Z,16.60
2019-05-11T01:47:40.936Z,16.80
2019-05-11T01:52:45.854Z,16.60
2019-05-11T01:57:50.951Z,16.80
2019-05-11T02:02:56.023Z,17.20
2019-05-11T02:08:02.621Z,15.53
2019-05-11T02:13:07.731Z,19.23
2019-05-11T02:18:12.882Z,18.63
2019-05-11T02:23:17.859Z,15.17
2019-05-11T02:28:22.838Z,18.07
2019-05-11T02:33:27.885Z,20.23
2019-05-11T02:38:32.859Z,19.83
2019-05-11T02:43:37.955Z,17.93
2019-05-11T02:49:15.757Z,26.80
2019-05-11T02:54:39.332Z,16.57
2019-05-11T02:59:44.371Z,9.83
2019-05-11T03:04:49.325Z,9.80
2019-05-11T03:09:54.430Z,9.30
2019-05-11T03:14:59.391Z,12.23
2019-05-11T03:20:06.044Z,17.17
2019-05-11T03:25:11.161Z,14.57
2019-05-11T03:30:16.378Z,23.87
2019-05-11T03:35:21.447Z,24.03
2019-05-11T03:40:26.524Z,23.83
2019-05-11T03:45:31.649Z,20.70
2019-05-11T03:50:36.744Z,31.10
2019-05-11T03:55:41.819Z,28.43
2019-05-11T04:00:46.864Z,37.73
2019-05-11T04:05:52.014Z,42.00
2019-05-11T04:10:56.965Z,39.67
2019-05-11T04:16:01.951Z,30.73
2019-05-11T04:21:06.991Z,38.43
2019-05-11T04:26:12.015Z,31.37
2019-05-11T04:31:16.963Z,30.10
2019-05-11T04:36:22.013Z,32.53
2019-05-11T04:41:27.059Z,23.10
2019-05-11T04:46:33.184Z,29.37
2019-05-11T04:51:38.197Z,21.77
2019-05-11T04:56:43.387Z,24.67
2019-05-11T05:01:48.429Z,24.93
2019-05-11T05:06:59.922Z,27.97
2019-05-11T05:12:00.046Z,24.47
2019-05-11T05:17:05.106Z,22.90
2019-05-11T05:22:10.087Z,20.63
2019-05-11T05:27:15.135Z,19.87
2019-05-11T05:32:20.111Z,21.57
2019-05-11T05:37:25.285Z,28.60
2019-05-11T05:42:30.323Z,25.73
2019-05-11T05:47:35.381Z,23.50
2019-05-11T05:52:40.324Z,22.33
2019-05-11T05:57:45.299Z,19.47
2019-05-11T06:02:50.435Z,20.93
2019-05-11T06:07:55.388Z,16.87
2019-05-11T06:13:00.414Z,24.10
2019-05-11T06:18:05.610Z,23.10
2019-05-11T06:23:10.667Z,18.70
2019-05-11T06:28:15.715Z,19.63
2019-05-11T06:33:20.769Z,13.93
2019-05-11T06:38:25.713Z,17.57
2019-05-11T06:43:30.735Z,16.60
2019-05-11T06:48:36.239Z,13.37
2019-05-11T06:53:41.429Z,14.20
2019-05-11T06:58:46.394Z,14.00
2019-05-11T07:03:51.367Z,13.57
2019-05-11T07:08:56.419Z,11.80
2019-05-11T07:14:18.697Z,17.67
2019-05-11T07:19:08.028Z,10.47
2019-05-11T07:24:13.118Z,10.47
2019-05-11T07:29:18.351Z,7.50
2019-05-11T07:34:23.408Z,8.10
2019-05-11T07:39:28.659Z,6.63
2019-05-11T07:44:38.298Z,7.00
2019-05-11T07:49:40.204Z,7.03
2019-05-11T07:54:51.824Z,11.73
2019-05-11T07:59:52.076Z,11.00
2019-05-11T08:04:58.642Z,9.53
2019-05-11T08:10:08.205Z,14.03
2019-05-11T08:15:13.994Z,8.43
2019-05-11T08:20:27.903Z,9.53
2019-05-11T08:25:32.918Z,14.97
2019-05-11T08:30:38.243Z,6.97
2019-05-11T08:35:43.320Z,10.00
2019-05-11T08:40:48.636Z,7.83
2019-05-11T08:45:53.595Z,9.20
2019-05-11T08:50:58.563Z,8.20
2019-05-11T08:56:03.660Z,7.37
2019-05-11T09:01:08.960Z,8.20
2019-05-11T09:06:14.086Z,5.30
2019-05-11T09:11:19.338Z,7.17
2019-05-11T09:16:24.276Z,7.07
2019-05-11T09:27:22.430Z,4.30
2019-05-11T09:32:42.130Z,5.90
2019-05-11T09:38:01.921Z,5.57
2019-05-11T09:43:21.923Z,7.60
2019-05-11T09:48:42.649Z,6.13
2019-05-11T09:59:38.503Z,6.83
2019-05-11T10:04:57.680Z,7.13
2019-05-11T10:10:14.938Z,5.67
2019-05-11T10:15:33.913Z,4.87
2019-05-11T10:20:53.939Z,8.97
2019-05-11T10:26:13.721Z,3.80
2019-05-11T10:31:28.462Z,4.30
2019-05-11T10:36:48.672Z,3.50
2019-05-11T10:42:17.862Z,3.77
2019-05-11T10:47:38.229Z,4.08
2019-05-11T11:03:48.543Z,3.47
2019-05-11T11:09:10.217Z,2.55
2019-05-11T11:14:28.870Z,4.87
2019-05-11T11:19:53.701Z,4.60
2019-05-11T11:25:13.189Z,2.95
2019-05-11T11:36:01.087Z,4.65
2019-05-11T11:41:22.411Z,2.40
2019-05-11T11:57:38.600Z,2.60
2019-05-11T12:02:58.800Z,4.17
2019-05-11T12:08:10.670Z,5.10
2019-05-11T12:13:29.869Z,2.12
2019-05-11T12:35:12.477Z,1.50
2019-05-11T12:46:00.743Z,3.30
2019-05-11T12:56:48.743Z,2.30
2019-05-11T13:01:59.215Z,4.28
2019-05-11T13:07:22.782Z,2.60
2019-05-11T13:12:43.093Z,3.10
2019-05-11T13:18:04.837Z,6.20
2019-05-11T13:23:27.638Z,2.90
2019-05-11T13:28:45.476Z,5.33
2019-05-11T13:34:05.670Z,3.95
2019-05-11T13:39:28.398Z,3.70
2019-05-11T13:50:17.731Z,3.83
2019-05-11T13:55:38.583Z,3.55
2019-05-11T14:01:08.095Z,3.60
2019-05-11T14:06:28.752Z,2.85
2019-05-11T14:17:03.471Z,3.30
2019-05-11T14:22:08.793Z,4.95
2019-05-11T14:27:13.801Z,6.75
2019-05-11T14:32:18.783Z,13.98
2019-05-11T14:37:23.867Z,3.95
2019-05-11T14:42:28.989Z,3.00
2019-05-11T14:47:33.941Z,4.08
2019-05-11T14:52:39.221Z,4.42
2019-05-11T14:57:44.233Z,6.83
2019-05-11T15:02:50.059Z,4.87
2019-05-11T15:07:55.203Z,3.80
2019-05-11T15:13:00.243Z,4.03
2019-05-11T15:18:05.372Z,3.80
2019-05-11T15:23:10.413Z,3.92
2019-05-11T15:28:15.519Z,3.35
2019-05-11T15:33:20.467Z,2.98
2019-05-11T15:38:25.519Z,11.97
2019-05-11T15:43:30.589Z,3.50
2019-05-11T15:48:52.810Z,4.08
2019-05-11T15:53:42.272Z,4.37
2019-05-11T15:58:48.712Z,4.28
2019-05-11T16:03:53.827Z,4.20
2019-05-11T16:08:58.843Z,7.92
2019-05-11T16:14:03.963Z,4.85
2019-05-11T16:19:14.707Z,5.78
2019-05-11T16:24:15.643Z,4.75
2019-05-11T16:29:20.620Z,4.45
2019-05-11T16:34:27.632Z,4.97
2019-05-11T16:39:32.353Z,6.25
2019-05-11T16:44:37.851Z,5.35
2019-05-11T16:49:42.951Z,6.25
2019-05-11T16:54:47.931Z,6.37
2019-05-11T16:59:52.915Z,4.50
2019-05-11T17:04:58.162Z,5.37
2019-05-11T17:10:04.590Z,7.47
2019-05-11T17:15:09.894Z,6.77
2019-05-11T17:20:15.183Z,4.43
2019-05-11T17:25:20.161Z,6.37
2019-05-11T17:30:25.172Z,5.63
2019-05-11T17:35:30.147Z,10.30
2019-05-11T17:40:37.669Z,6.00
2019-05-11T17:45:41.918Z,8.03
2019-05-11T17:50:47.032Z,6.57
2019-05-11T17:55:51.979Z,8.17
2019-05-11T18:00:58.838Z,11.47
2019-05-11T18:06:03.867Z,16.53
2019-05-11T18:11:08.935Z,14.43
2019-05-11T18:16:14.055Z,10.40
2019-05-11T18:21:19.086Z,12.93
2019-05-11T18:26:24.020Z,10.73
2019-05-11T18:31:29.071Z,9.03
2019-05-11T18:36:34.015Z,12.07
2019-05-11T18:41:39.273Z,13.03
2019-05-11T18:46:44.515Z,11.20
2019-05-11T18:51:49.563Z,9.40
2019-05-11T18:56:54.607Z,10.77
2019-05-11T19:01:59.656Z,8.47
2019-05-11T19:07:14.275Z,5.90
2019-05-11T19:12:11.440Z,7.83
2019-05-11T19:17:18.165Z,10.10
2019-05-11T19:22:23.237Z,24.27
2019-05-11T19:27:29.258Z,18.10
2019-05-11T19:32:34.291Z,20.10
2019-05-11T19:37:39.619Z,13.00
2019-05-11T19:42:53.753Z,15.70
2019-05-11T19:48:00.128Z,22.13
2019-05-11T19:53:05.187Z,20.00
2019-05-11T19:58:10.286Z,16.30
2019-05-11T20:03:15.338Z,11.03
2019-05-11T20:08:20.589Z,13.00
2019-05-11T20:13:25.605Z,16.93
2019-05-11T20:18:30.704Z,12.53
2019-05-11T20:23:37.563Z,9.07
2019-05-11T20:28:42.398Z,17.00
2019-05-11T20:33:47.755Z,9.47
2019-05-11T20:38:53.878Z,10.20
2019-05-11T20:43:58.929Z,7.87
2019-05-11T20:49:03.972Z,8.67
2019-05-11T20:54:09.083Z,11.27
2019-05-11T20:59:14.211Z,10.47
2019-05-11T21:04:19.182Z,6.83
2019-05-11T21:09:24.222Z,9.57
2019-05-11T21:14:29.279Z,10.73
2019-05-11T21:19:34.290Z,8.80
2019-05-11T21:24:39.202Z,9.47
2019-05-11T21:29:44.159Z,9.77
2019-05-11T21:34:49.175Z,10.73
2019-05-11T21:39:54.226Z,16.30
2019-05-11T21:44:59.179Z,9.93
2019-05-11T21:50:04.692Z,9.40
2019-05-11T21:55:09.977Z,9.37
2019-05-11T22:00:15.327Z,8.30
2019-05-11T22:05:21.966Z,9.07
2019-05-11T22:10:28.351Z,8.53
2019-05-11T22:15:33.714Z,13.83
2019-05-11T22:20:40.915Z,10.03
2019-05-11T22:25:47.552Z,8.40
2019-05-11T22:30:53.133Z,6.00
2019-05-11T22:35:58.885Z,10.20
2019-05-11T22:41:03.946Z,11.20
2019-05-11T22:46:08.995Z,9.40
2019-05-11T22:51:13.995Z,11.13
2019-05-11T22:56:20.069Z,8.37
2019-05-11T23:01:28.275Z,9.63
2019-05-11T23:06:32.959Z,7.93
2019-05-11T23:11:38.045Z,7.40
2019-05-11T23:16:44.178Z,7.43
2019-05-11T23:21:49.520Z,7.40
2019-05-11T23:26:54.491Z,6.30
2019-05-11T23:32:00.599Z,6.67
2019-05-11T23:37:07.868Z,7.23
2019-05-11T23:42:12.343Z,7.07
2019-05-11T23:47:19.999Z,5.93
2019-05-11T23:52:23.974Z,11.67
2019-05-11T23:57:29.098Z,8.53
